Time;durP1;ratioP1;P1;durP2;ratioP2;P2;SDS_P1;SDS_P2;PMS_P1;PMS_P2;Temp;Humidity;BMP_temperature;BMP_pressure;BME280_temperature;BME280_humidity;BME280_pressure;Samples;Min_cycle;Max_cycle;Signal;HPM_P1;HPM_P2
2020/12/29 00:00:26;;;;;;;6.83;6.10;;;2.90;99.90;;;;;;5015363;28;20614;-80
2020/12/29 00:02:52;;;;;;;7.27;5.50;;;2.90;99.90;;;;;;5031977;28;20653;-79
2020/12/29 00:05:17;;;;;;;7.90;6.20;;;2.80;99.90;;;;;;5032028;28;20700;-79
2020/12/29 00:07:53;;;;;;;7.47;6.10;;;2.70;99.90;;;;;;5031836;28;20250;-79
2020/12/29 00:10:20;;;;;;;7.00;5.90;;;2.60;99.90;;;;;;5032954;28;20190;-80
2020/12/29 00:12:46;;;;;;;7.90;6.30;;;2.50;99.90;;;;;;5031800;28;20206;-80
2020/12/29 00:15:11;;;;;;;7.33;6.17;;;2.50;99.90;;;;;;5031918;28;20221;-80
2020/12/29 00:17:37;;;;;;;6.90;6.20;;;2.40;99.90;;;;;;5015233;28;20172;-80
2020/12/29 00:20:02;;;;;;;8.13;6.70;;;2.40;99.90;;;;;;5031065;28;20194;-80
2020/12/29 00:22:28;;;;;;;7.90;6.73;;;2.40;99.90;;;;;;5031841;28;20245;-80
2020/12/29 00:24:53;;;;;;;9.10;7.13;;;2.30;99.90;;;;;;5031622;28;20189;-80
2020/12/29 00:27:19;;;;;;;9.43;6.90;;;2.50;99.90;;;;;;5031243;28;20183;-80
2020/12/29 00:29:44;;;;;;;8.13;6.83;;;2.50;99.90;;;;;;5031528;28;20195;-80
2020/12/29 00:32:10;;;;;;;9.70;6.97;;;2.50;99.90;;;;;;5031387;28;20255;-80
2020/12/29 00:34:35;;;;;;;9.60;7.40;;;2.50;99.90;;;;;;5031402;28;20178;-80
2020/12/29 00:37:01;;;;;;;7.83;6.40;;;2.50;99.90;;;;;;5031460;28;20273;-80
2020/12/29 00:39:27;;;;;;;7.43;6.33;;;2.40;99.90;;;;;;5031715;28;20209;-80
2020/12/29 00:41:54;;;;;;;7.33;6.53;;;2.30;99.90;;;;;;5031647;28;20240;-80
2020/12/29 00:44:20;;;;;;;8.80;6.63;;;2.20;99.90;;;;;;5031572;28;20182;-80
2020/12/29 00:46:45;;;;;;;6.83;6.03;;;2.20;99.90;;;;;;5031284;28;20175;-80
2020/12/29 00:49:11;;;;;;;7.37;5.97;;;2.10;99.90;;;;;;5031313;28;20289;-80
2020/12/29 00:51:36;;;;;;;6.20;5.47;;;2.00;99.90;;;;;;5031198;28;20555;-80
2020/12/29 00:54:02;;;;;;;8.03;6.37;;;1.90;99.90;;;;;;5031419;28;20609;-80
2020/12/29 00:56:27;;;;;;;7.33;6.37;;;1.80;99.90;;;;;;5031016;28;20624;-80
2020/12/29 00:58:53;;;;;;;6.93;5.70;;;1.70;99.90;;;;;;5031107;28;20654;-80
2020/12/29 01:01:18;;;;;;;8.37;7.30;;;1.70;99.90;;;;;;5031117;28;20225;-78
2020/12/29 01:03:44;;;;;;;8.27;6.87;;;1.70;99.90;;;;;;5031629;28;20182;-78
2020/12/29 01:06:10;;;;;;;7.90;6.80;;;1.70;99.90;;;;;;5014625;28;20179;-78
2020/12/29 01:08:35;;;;;;;9.27;7.30;;;1.70;99.90;;;;;;5031445;28;20244;-78
2020/12/29 01:11:01;;;;;;;8.37;7.30;;;1.70;99.90;;;;;;5031030;28;20206;-78
2020/12/29 01:13:26;;;;;;;8.93;7.40;;;1.70;99.90;;;;;;5031637;28;20649;-78
2020/12/29 01:15:52;;;;;;;9.90;7.90;;;1.80;99.90;;;;;;5031377;28;20191;-78
2020/12/29 01:18:18;;;;;;;9.83;7.67;;;1.80;99.90;;;;;;5031169;28;20175;-78
2020/12/29 01:20:43;;;;;;;9.23;7.77;;;1.70;99.90;;;;;;5031141;28;20206;-78
2020/12/29 01:23:09;;;;;;;10.03;7.80;;;1.70;99.90;;;;;;5031159;28;20183;-78
2020/12/29 01:25:35;;;;;;;8.40;6.73;;;1.70;99.90;;;;;;5031413;28;20530;-78
2020/12/29 01:28:00;;;;;;;8.23;6.60;;;1.60;99.90;;;;;;5031245;28;20212;-78
2020/12/29 01:30:26;;;;;;;10.37;7.20;;;1.50;99.90;;;;;;5032842;28;20287;-78
2020/12/29 01:32:51;;;;;;;11.17;6.63;;;1.40;99.90;;;;;;5034898;28;20171;-78
2020/12/29 01:35:17;;;;;;;8.53;7.30;;;1.40;99.90;;;;;;5035143;28;20261;-78
2020/12/29 01:37:43;;;;;;;10.07;7.33;;;1.30;99.90;;;;;;5034765;28;20658;-78
2020/12/29 01:40:09;;;;;;;9.53;7.90;;;1.30;99.90;;;;;;5035071;28;20258;-78
2020/12/29 01:42:35;;;;;;;8.97;7.17;;;1.30;99.90;;;;;;5034748;28;20678;-78
2020/12/29 01:45:00;;;;;;;12.63;7.47;;;1.20;99.90;;;;;;5034911;28;20184;-78
2020/12/29 01:47:26;;;;;;;9.60;7.43;;;1.20;99.90;;;;;;5034612;28;20178;-78
2020/12/29 01:49:52;;;;;;;10.23;8.33;;;1.20;99.90;;;;;;5034838;28;20225;-78
2020/12/29 01:52:17;;;;;;;10.80;8.63;;;1.10;99.90;;;;;;5034852;28;20261;-78
2020/12/29 01:54:43;;;;;;;9.80;8.67;;;1.10;99.90;;;;;;5034923;28;20515;-78
2020/12/29 01:57:08;;;;;;;11.77;7.97;;;1.10;99.90;;;;;;5034986;28;20233;-78
2020/12/29 01:59:34;;;;;;;10.77;8.97;;;1.10;99.90;;;;;;5034563;28;20171;-78
2020/12/29 02:02:00;;;;;;;10.27;8.50;;;1.30;99.90;;;;;;5018111;28;20658;-78
2020/12/29 02:04:25;;;;;;;10.30;8.97;;;1.40;99.90;;;;;;5034670;28;20181;-78
2020/12/29 02:06:51;;;;;;;9.67;8.17;;;1.40;99.90;;;;;;5034548;28;20202;-78
2020/12/29 02:09:16;;;;;;;10.83;8.30;;;1.40;99.90;;;;;;5034684;28;20186;-78
2020/12/29 02:11:42;;;;;;;10.03;8.30;;;1.40;99.90;;;;;;5034490;28;20298;-78
2020/12/29 02:14:08;;;;;;;13.03;8.70;;;1.60;99.90;;;;;;5034717;28;20256;-78
2020/12/29 02:16:37;;;;;;;9.80;8.17;;;1.60;99.90;;;;;;5034737;28;20604;-78
2020/12/29 02:19:04;;;;;;;9.83;8.13;;;1.70;99.90;;;;;;5018182;28;20609;-78
2020/12/29 02:21:33;;;;;;;10.57;8.27;;;1.80;99.90;;;;;;5034366;28;20205;-78
2020/12/29 02:23:59;;;;;;;9.23;7.83;;;1.80;99.90;;;;;;5034559;28;20179;-78
2020/12/29 02:26:32;;;;;;;9.37;8.03;;;1.80;99.90;;;;;;5034161;28;20183;-78
2020/12/29 02:28:59;;;;;;;9.27;7.90;;;1.80;99.90;;;;;;5034893;28;20553;-78
2020/12/29 02:31:24;;;;;;;11.17;8.37;;;1.90;99.90;;;;;;5034739;28;20795;-78
2020/12/29 02:33:50;;;;;;;10.20;8.80;;;1.90;99.90;;;;;;5035309;28;20249;-78
2020/12/29 02:36:15;;;;;;;9.93;8.17;;;1.90;99.90;;;;;;5034665;28;20198;-78
2020/12/29 02:38:41;;;;;;;8.47;7.20;;;1.90;99.90;;;;;;5019144;28;20206;-79
2020/12/29 02:41:07;;;;;;;8.93;7.37;;;2.00;99.90;;;;;;4992980;28;20233;-78
2020/12/29 02:43:32;;;;;;;8.47;7.23;;;2.10;99.90;;;;;;5033925;28;20194;-78
2020/12/29 02:45:58;;;;;;;10.37;7.33;;;2.10;99.90;;;;;;5034739;28;20198;-78
2020/12/29 02:48:23;;;;;;;10.03;7.33;;;2.10;99.90;;;;;;5035036;28;20530;-78
2020/12/29 02:50:49;;;;;;;8.97;7.53;;;2.10;99.90;;;;;;5034138;28;20672;-78
2020/12/29 02:53:14;;;;;;;10.50;7.70;;;2.10;99.90;;;;;;5017416;28;20242;-78
2020/12/29 02:55:41;;;;;;;8.90;7.50;;;2.10;99.90;;;;;;5033866;28;20682;-78
2020/12/29 02:58:07;;;;;;;9.33;7.63;;;2.10;99.90;;;;;;5033416;28;20183;-78
2020/12/29 03:00:32;;;;;;;8.87;7.90;;;2.10;99.90;;;;;;5033631;28;20221;-78
2020/12/29 03:02:58;;;;;;;9.60;7.60;;;2.20;99.90;;;;;;5033819;28;20175;-78
2020/12/29 03:05:23;;;;;;;9.60;7.23;;;2.20;99.90;;;;;;5033818;28;20271;-78
2020/12/29 03:07:49;;;;;;;9.23;7.33;;;2.10;99.90;;;;;;5033491;28;20254;-78
2020/12/29 03:10:14;;;;;;;8.57;7.67;;;2.10;99.90;;;;;;5033312;28;20199;-78
2020/12/29 03:12:40;;;;;;;8.03;6.97;;;2.10;99.90;;;;;;5033700;28;20201;-78
2020/12/29 03:15:07;;;;;;;8.43;7.27;;;2.10;99.90;;;;;;5033380;28;20190;-78
2020/12/29 03:17:32;;;;;;;10.77;8.07;;;2.10;99.90;;;;;;5016394;28;20645;-78
2020/12/29 03:19:58;;;;;;;9.23;7.50;;;2.10;99.90;;;;;;5033227;28;20246;-78
2020/12/29 03:22:24;;;;;;;8.53;7.53;;;2.10;99.90;;;;;;5033434;28;20178;-78
2020/12/29 03:24:49;;;;;;;7.93;7.13;;;2.10;99.90;;;;;;5033463;28;20549;-78
2020/12/29 03:27:15;;;;;;;9.67;7.37;;;2.20;99.90;;;;;;5033070;28;20680;-78
2020/12/29 03:29:40;;;;;;;7.97;7.17;;;2.10;99.90;;;;;;5032816;28;20171;-78
2020/12/29 03:32:06;;;;;;;9.07;7.43;;;2.20;99.90;;;;;;5033155;28;20234;-78
2020/12/29 03:34:37;;;;;;;8.37;7.27;;;2.20;99.90;;;;;;5033503;28;20175;-78
2020/12/29 03:37:09;;;;;;;8.87;7.57;;;2.20;99.90;;;;;;5032141;28;20190;-78
2020/12/29 03:39:35;;;;;;;9.37;7.80;;;2.20;99.90;;;;;;5016240;28;20201;-78
2020/12/29 03:42:02;;;;;;;8.37;7.47;;;2.20;99.90;;;;;;5032311;28;20182;-78
2020/12/29 03:44:27;;;;;;;8.87;7.33;;;2.20;99.90;;;;;;5032874;28;20183;-78
2020/12/29 03:46:53;;;;;;;9.77;8.23;;;2.20;99.90;;;;;;5032741;28;20179;-78
2020/12/29 03:49:19;;;;;;;8.83;7.47;;;2.20;99.90;;;;;;5032662;28;20206;-78
2020/12/29 03:51:44;;;;;;;7.90;7.10;;;2.20;99.90;;;;;;5024089;28;20223;-78
2020/12/29 03:54:10;;;;;;;7.60;6.80;;;2.20;99.90;;;;;;4996293;28;20234;-78
2020/12/29 03:56:36;;;;;;;8.93;8.03;;;2.20;99.90;;;;;;5020909;28;20186;-78
2020/12/29 03:59:01;;;;;;;8.30;7.33;;;2.20;99.90;;;;;;5016129;28;20177;-78
2020/12/29 04:01:27;;;;;;;10.03;8.10;;;2.20;99.90;;;;;;5032617;28;20689;-78
2020/12/29 04:03:52;;;;;;;11.13;8.10;;;2.10;99.90;;;;;;5032411;28;20175;-78
2020/12/29 04:06:18;;;;;;;9.00;7.60;;;2.10;99.90;;;;;;5032281;28;20183;-78
2020/12/29 04:08:44;;;;;;;8.17;7.00;;;2.20;99.90;;;;;;5015763;28;20274;-78
2020/12/29 04:11:10;;;;;;;8.37;7.57;;;2.20;99.90;;;;;;5032281;28;20205;-78
2020/12/29 04:13:36;;;;;;;8.40;7.50;;;2.20;99.90;;;;;;5032481;28;20237;-78
2020/12/29 04:16:01;;;;;;;8.53;7.63;;;2.20;99.90;;;;;;5032555;28;20269;-78
2020/12/29 04:18:27;;;;;;;8.20;7.37;;;2.20;99.90;;;;;;5015619;28;20178;-78
2020/12/29 04:20:52;;;;;;;9.10;7.60;;;2.20;99.90;;;;;;5031991;28;20206;-78
2020/12/29 04:23:18;;;;;;;7.83;7.03;;;2.10;99.90;;;;;;5032264;28;20278;-78
2020/12/29 04:25:43;;;;;;;7.83;6.77;;;2.10;99.90;;;;;;5015438;28;20179;-78
2020/12/29 04:28:09;;;;;;;7.73;6.80;;;2.00;99.90;;;;;;5015301;28;20190;-78
2020/12/29 04:30:34;;;;;;;7.43;6.53;;;1.90;99.90;;;;;;5015208;28;20217;-78
2020/12/29 04:33:00;;;;;;;10.03;7.17;;;1.90;99.90;;;;;;5014784;28;20265;-78
2020/12/29 04:35:25;;;;;;;8.73;7.40;;;2.00;99.90;;;;;;5015558;28;20278;-78
2020/12/29 04:37:51;;;;;;;8.80;7.63;;;1.90;99.90;;;;;;5031568;28;20225;-78
2020/12/29 04:40:16;;;;;;;7.70;6.87;;;1.80;99.90;;;;;;5031335;28;20202;-78
2020/12/29 04:42:42;;;;;;;8.07;7.00;;;1.70;99.90;;;;;;5031708;28;20189;-78
2020/12/29 04:45:08;;;;;;;8.90;7.23;;;1.70;99.90;;;;;;5031609;28;20186;-78
2020/12/29 04:47:33;;;;;;;8.00;7.20;;;1.60;99.90;;;;;;5031048;28;20259;-78
2020/12/29 04:49:59;;;;;;;7.43;6.63;;;1.60;99.90;;;;;;5031243;28;20241;-78
2020/12/29 04:52:25;;;;;;;8.50;7.33;;;1.60;99.90;;;;;;5031363;28;20210;-78
2020/12/29 04:54:52;;;;;;;7.87;6.73;;;1.50;99.90;;;;;;5031233;28;20174;-78
2020/12/29 04:57:18;;;;;;;11.17;8.00;;;1.50;99.90;;;;;;5031090;28;20645;-78
2020/12/29 04:59:43;;;;;;;8.23;7.33;;;1.60;99.90;;;;;;5031269;28;20179;-78
2020/12/29 05:02:09;;;;;;;9.07;7.93;;;1.60;99.90;;;;;;5031239;28;20339;-79
2020/12/29 05:04:34;;;;;;;9.90;8.43;;;1.60;99.90;;;;;;5030671;28;20190;-78
2020/12/29 05:07:00;;;;;;;9.00;8.10;;;1.70;99.90;;;;;;5031167;28;20179;-78
2020/12/29 05:09:26;;;;;;;10.23;8.43;;;1.70;99.90;;;;;;5031165;28;20190;-78
2020/12/29 05:11:52;;;;;;;11.60;8.77;;;1.70;99.90;;;;;;5031534;28;20673;-78
2020/12/29 05:14:18;;;;;;;10.63;7.97;;;1.80;99.90;;;;;;5015266;28;20181;-78
2020/12/29 05:16:43;;;;;;;9.53;8.07;;;1.80;99.90;;;;;;5031248;28;20639;-78
2020/12/29 05:19:13;;;;;;;8.80;7.80;;;1.90;99.90;;;;;;5031227;28;20183;-77
2020/12/29 05:21:39;;;;;;;9.80;8.10;;;1.90;99.90;;;;;;5031364;28;20662;-77
2020/12/29 05:24:08;;;;;;;8.73;7.77;;;2.00;99.90;;;;;;5031452;28;20237;-78
2020/12/29 05:26:35;;;;;;;8.23;7.13;;;2.00;99.90;;;;;;5031236;28;20561;-78
2020/12/29 05:29:04;;;;;;;8.13;7.33;;;2.00;99.90;;;;;;5031268;28;20190;-78
2020/12/29 05:31:32;;;;;;;8.67;7.37;;;2.00;99.90;;;;;;5031158;28;20205;-79
2020/12/29 05:33:58;;;;;;;8.80;7.90;;;2.10;99.90;;;;;;5031155;28;20210;-78
2020/12/29 05:36:24;;;;;;;8.43;7.30;;;2.00;99.90;;;;;;5031176;28;20213;-78
2020/12/29 05:38:49;;;;;;;9.80;7.90;;;2.00;99.90;;;;;;5031363;28;20175;-78
2020/12/29 05:41:20;;;;;;;9.37;7.07;;;1.90;99.90;;;;;;5030843;28;20203;-77
2020/12/29 05:44:01;;;;;;;9.23;7.87;;;2.00;99.90;;;;;;5031585;28;20206;-78
2020/12/29 05:46:28;;;;;;;9.93;7.83;;;2.00;99.90;;;;;;5030763;28;20165;-78
2020/12/29 05:48:55;;;;;;;9.70;8.70;;;2.00;99.90;;;;;;5031033;28;20246;-79
2020/12/29 05:51:20;;;;;;;9.67;8.67;;;1.90;99.90;;;;;;5031024;28;20713;-78
2020/12/29 05:53:47;;;;;;;9.97;8.67;;;2.00;99.90;;;;;;5031091;28;20179;-77
2020/12/29 05:56:12;;;;;;;8.73;7.77;;;1.90;99.90;;;;;;5030593;28;20599;-77
2020/12/29 05:58:38;;;;;;;9.40;7.70;;;1.90;99.90;;;;;;5030771;28;20258;-79
2020/12/29 06:01:03;;;;;;;8.80;7.60;;;2.00;99.90;;;;;;5031031;28;20256;-78
2020/12/29 06:03:29;;;;;;;7.53;6.73;;;1.90;99.90;;;;;;5030793;28;20183;-79
2020/12/29 06:05:58;;;;;;;7.73;6.87;;;1.90;99.90;;;;;;5014036;28;20183;-78
2020/12/29 06:08:23;;;;;;;8.33;6.97;;;1.90;99.90;;;;;;5030390;28;20193;-78
2020/12/29 06:10:59;;;;;;;7.17;6.47;;;1.90;99.90;;;;;;5030369;28;20257;-78
2020/12/29 06:13:28;;;;;;;7.47;6.67;;;1.80;99.90;;;;;;5031024;28;20696;-78
2020/12/29 06:15:57;;;;;;;10.30;6.97;;;1.80;99.90;;;;;;5014474;28;20193;-78
2020/12/29 06:18:32;;;;;;;6.97;6.27;;;1.80;99.90;;;;;;5033938;28;20174;-77
2020/12/29 06:20:58;;;;;;;7.90;7.10;;;1.80;99.90;;;;;;5034414;28;20213;-77
2020/12/29 06:23:23;;;;;;;8.73;7.27;;;1.70;99.90;;;;;;5017674;28;20270;-79
2020/12/29 06:25:49;;;;;;;9.33;6.97;;;1.70;99.90;;;;;;5017512;28;20189;-78
2020/12/29 06:28:18;;;;;;;7.93;6.47;;;1.60;99.90;;;;;;5034266;28;20233;-78
2020/12/29 06:30:43;;;;;;;7.53;6.73;;;1.70;99.90;;;;;;5034192;28;20199;-78
2020/12/29 06:33:09;;;;;;;13.07;9.57;;;1.70;99.90;;;;;;5034100;28;20183;-78
2020/12/29 06:35:34;;;;;;;21.80;11.83;;;1.70;99.90;;;;;;5033803;28;20213;-78
2020/12/29 06:38:13;;;;;;;18.03;10.23;;;1.70;99.90;;;;;;5033875;28;20175;-78
2020/12/29 06:40:39;;;;;;;17.90;9.47;;;1.70;99.90;;;;;;5035063;28;20199;-78
2020/12/29 06:43:08;;;;;;;11.47;8.53;;;1.60;99.90;;;;;;5033627;28;20248;-78
2020/12/29 06:45:34;;;;;;;12.33;8.40;;;1.60;99.90;;;;;;5033853;28;20646;-78
2020/12/29 06:47:59;;;;;;;11.60;8.20;;;1.50;99.90;;;;;;5033679;28;20221;-78
2020/12/29 06:50:30;;;;;;;10.13;8.47;;;1.50;99.90;;;;;;5017170;28;20203;-78
2020/12/29 06:53:00;;;;;;;9.87;8.53;;;1.50;99.90;;;;;;5033502;28;20183;-78
2020/12/29 06:55:36;;;;;;;9.63;7.40;;;1.60;99.90;;;;;;5033766;28;20179;-78
2020/12/29 06:58:02;;;;;;;10.17;7.70;;;1.60;99.90;;;;;;5033316;28;20185;-78
2020/12/29 07:02:55;;;;;;;10.03;7.70;;;1.60;99.90;;;;;;4994511;28;20209;-88
2020/12/29 07:05:27;;;;;;;8.30;7.40;;;1.60;99.90;;;;;;4962422;28;20186;-88
2020/12/29 07:08:19;;;;;;;9.37;7.27;;;1.60;99.90;;;;;;4962436;28;20233;-88
2020/12/29 07:10:46;;;;;;;8.00;7.07;;;1.60;99.90;;;;;;4980238;28;20564;-87
2020/12/29 07:13:18;;;;;;;9.07;6.97;;;1.60;99.90;;;;;;4997716;28;20270;-87
2020/12/29 07:15:50;;;;;;;7.20;6.43;;;1.50;99.90;;;;;;5013978;28;20558;-87
2020/12/29 07:18:23;;;;;;;8.10;6.87;;;1.50;99.90;;;;;;4997576;28;20318;-86
2020/12/29 07:20:50;;;;;;;8.57;7.23;;;1.40;99.90;;;;;;4998631;28;20211;-87
2020/12/29 07:23:19;;;;;;;9.07;7.17;;;1.40;99.90;;;;;;4997745;28;20182;-86
2020/12/29 07:25:47;;;;;;;9.77;7.07;;;1.40;99.90;;;;;;4997915;28;20308;-85
2020/12/29 07:28:12;;;;;;;10.07;7.53;;;1.30;99.90;;;;;;4997226;28;20298;-87
2020/12/29 07:30:38;;;;;;;10.90;8.03;;;1.30;99.90;;;;;;4997427;28;20634;-86
2020/12/29 07:33:05;;;;;;;9.20;7.70;;;1.20;99.90;;;;;;4997684;28;20181;-86
2020/12/29 07:35:32;;;;;;;10.27;7.70;;;1.30;99.90;;;;;;4995506;28;20181;-87
2020/12/29 07:37:58;;;;;;;10.10;8.10;;;1.30;99.90;;;;;;4997376;28;20172;-86
2020/12/29 07:40:24;;;;;;;11.13;7.53;;;1.30;99.90;;;;;;4981168;28;20196;-88
2020/12/29 07:42:50;;;;;;;8.67;7.73;;;1.30;99.90;;;;;;4980762;28;20598;-85
2020/12/29 07:45:16;;;;;;;9.30;7.50;;;1.40;99.90;;;;;;4977420;28;20182;-86
2020/12/29 07:47:41;;;;;;;8.67;7.63;;;1.40;99.90;;;;;;4997352;28;20179;-87
2020/12/29 07:50:07;;;;;;;11.00;7.20;;;1.50;99.90;;;;;;4997305;28;20176;-87
2020/12/29 07:52:32;;;;;;;9.67;7.30;;;1.50;99.90;;;;;;4994867;28;20678;-86
2020/12/29 07:55:24;;;;;;;10.43;7.50;;;1.50;99.90;;;;;;4984403;28;20226;-86
2020/12/29 07:57:50;;;;;;;9.00;7.20;;;1.60;99.90;;;;;;4988012;28;20230;-85
2020/12/29 08:00:16;;;;;;;9.47;7.73;;;1.60;99.90;;;;;;4993884;28;20293;-86
2020/12/29 08:02:49;;;;;;;11.00;7.50;;;1.60;99.90;;;;;;4977429;28;20226;-85
2020/12/29 08:05:14;;;;;;;11.83;7.87;;;1.60;99.90;;;;;;4977473;28;20227;-87
2020/12/29 08:07:40;;;;;;;9.30;7.23;;;1.70;99.90;;;;;;4977356;28;20852;-88
2020/12/29 08:10:05;;;;;;;11.47;7.70;;;1.80;99.90;;;;;;4980847;28;20180;-85
2020/12/29 08:12:31;;;;;;;14.60;8.07;;;1.80;99.90;;;;;;4997077;28;20215;-87
2020/12/29 08:14:56;;;;;;;9.67;6.90;;;1.90;99.90;;;;;;5004792;28;20186;-86
2020/12/29 08:17:22;;;;;;;10.63;7.47;;;2.00;99.90;;;;;;5016737;28;20562;-85
2020/12/29 08:19:58;;;;;;;10.13;6.90;;;2.00;99.90;;;;;;5034000;28;20622;-84
2020/12/29 08:22:25;;;;;;;7.53;6.37;;;2.10;99.90;;;;;;5017578;28;20289;-87
2020/12/29 08:24:51;;;;;;;43.80;27.13;;;2.00;99.90;;;;;;5033479;28;20179;-85
2020/12/29 08:27:17;;;;;;;343.27;168.23;;;2.10;99.90;;;;;;5032561;28;20657;-87
2020/12/29 08:29:42;;;;;;;214.60;117.43;;;2.10;99.90;;;;;;5000720;28;20651;-89
2020/12/29 08:32:09;;;;;;;65.63;43.63;;;2.20;99.90;;;;;;4993430;28;20302;-86
2020/12/29 08:34:38;;;;;;;17.40;11.70;;;2.10;99.90;;;;;;4993406;28;20169;-86
2020/12/29 08:37:04;;;;;;;38.13;24.27;;;2.20;99.90;;;;;;4993851;28;20184;-88
2020/12/29 08:39:58;;;;;;;44.40;30.27;;;2.20;99.90;;;;;;5013355;28;20228;-86
2020/12/29 08:42:24;;;;;;;33.70;22.60;;;2.30;99.90;;;;;;5032358;28;20210;-86
2020/12/29 08:44:49;;;;;;;17.17;10.90;;;2.30;99.90;;;;;;5032383;28;20204;-87
2020/12/29 08:47:15;;;;;;;30.40;25.67;;;2.30;99.90;;;;;;5032058;28;20266;-87
2020/12/29 08:49:41;;;;;;;18.20;13.70;;;2.20;99.90;;;;;;5032487;28;20211;-86
2020/12/29 08:52:06;;;;;;;65.27;46.20;;;2.30;99.90;;;;;;5033578;28;20210;-85
2020/12/29 08:54:37;;;;;;;85.67;55.17;;;2.30;99.90;;;;;;5033950;28;20668;-87
2020/12/29 08:57:05;;;;;;;26.13;19.03;;;2.40;99.90;;;;;;5034907;28;20194;-83
2020/12/29 08:59:40;;;;;;;15.97;11.20;;;2.30;99.90;;;;;;5018238;28;20186;-86
2020/12/29 09:02:07;;;;;;;36.67;25.03;;;2.20;99.90;;;;;;5037146;28;20233;-84
2020/12/29 09:04:36;;;;;;;32.13;26.87;;;2.30;99.90;;;;;;5036517;28;20201;-83
2020/12/29 09:07:14;;;;;;;32.17;22.77;;;2.40;99.90;;;;;;5033439;28;20273;-83
2020/12/29 09:09:52;;;;;;;26.57;20.63;;;2.50;99.90;;;;;;4996007;28;20187;-83
2020/12/29 09:12:30;;;;;;;19.97;15.37;;;2.50;99.90;;;;;;4996920;28;20203;-80
2020/12/29 09:15:01;;;;;;;18.40;13.10;;;2.60;99.90;;;;;;4997269;28;20597;-85
2020/12/29 09:17:30;;;;;;;16.17;11.83;;;2.60;99.90;;;;;;4998224;28;20156;-81
2020/12/29 09:20:16;;;;;;;19.93;9.53;;;2.60;99.90;;;;;;4981815;28;20226;-86
2020/12/29 09:22:54;;;;;;;13.93;10.63;;;2.60;99.90;;;;;;5008655;28;20238;-87
2020/12/29 09:25:32;;;;;;;14.27;9.13;;;2.50;99.90;;;;;;5000901;28;20766;-87
2020/12/29 09:28:07;;;;;;;20.27;16.20;;;2.50;99.90;;;;;;5000952;28;20259;-86
2020/12/29 09:30:33;;;;;;;15.73;11.93;;;2.60;99.90;;;;;;5004271;28;20654;-77
2020/12/29 09:32:58;;;;;;;17.83;12.83;;;2.50;99.90;;;;;;4995728;28;20172;-83
2020/12/29 09:35:27;;;;;;;24.03;17.77;;;2.50;99.90;;;;;;4995181;28;20185;-86
2020/12/29 09:37:59;;;;;;;24.07;18.30;;;2.60;99.90;;;;;;4974495;28;20647;-85
2020/12/29 09:40:26;;;;;;;16.50;13.33;;;2.60;99.90;;;;;;5016056;28;20174;-80
2020/12/29 09:42:51;;;;;;;21.30;15.57;;;2.60;99.90;;;;;;5019301;28;20192;-85
2020/12/29 09:45:24;;;;;;;14.77;11.13;;;2.60;99.90;;;;;;5001730;28;20662;-82
2020/12/29 09:47:49;;;;;;;19.70;13.63;;;2.60;99.90;;;;;;4999460;28;20188;-81
2020/12/29 09:50:15;;;;;;;16.87;10.77;;;2.60;99.90;;;;;;4997828;28;20557;-82
2020/12/29 09:52:41;;;;;;;18.27;11.60;;;2.60;99.90;;;;;;5001740;28;20289;-82
2020/12/29 09:55:07;;;;;;;20.60;11.23;;;2.60;99.90;;;;;;5001512;28;20231;-82
2020/12/29 09:57:33;;;;;;;14.87;9.37;;;2.60;99.90;;;;;;5002021;28;20808;-80
2020/12/29 09:59:58;;;;;;;16.23;11.37;;;2.60;99.90;;;;;;5019681;28;20196;-81
2020/12/29 10:02:24;;;;;;;17.53;11.07;;;2.60;99.90;;;;;;5003977;28;20234;-83
2020/12/29 10:04:49;;;;;;;15.00;10.43;;;2.70;99.90;;;;;;5032324;28;20392;-80
2020/12/29 10:07:15;;;;;;;13.97;9.57;;;2.70;99.90;;;;;;4997179;28;20179;-80
2020/12/29 10:09:40;;;;;;;17.00;10.23;;;2.80;99.90;;;;;;4997749;28;20555;-79
2020/12/29 10:12:06;;;;;;;15.73;10.40;;;2.80;99.90;;;;;;5014167;28;20554;-80
2020/12/29 10:14:31;;;;;;;16.93;10.73;;;2.70;99.90;;;;;;4992006;28;20176;-78
2020/12/29 10:16:57;;;;;;;16.83;10.40;;;2.70;99.90;;;;;;5002212;28;20167;-80
2020/12/29 10:19:23;;;;;;;17.67;10.27;;;2.70;99.90;;;;;;5001808;28;20178;-83
2020/12/29 10:21:55;;;;;;;13.83;9.80;;;2.80;99.90;;;;;;4999835;28;20204;-83
2020/12/29 10:24:22;;;;;;;15.70;9.73;;;2.80;99.90;;;;;;4998597;28;20195;-83
2020/12/29 10:26:51;;;;;;;44.10;27.00;;;2.90;99.90;;;;;;5013198;28;20178;-83
2020/12/29 10:29:17;;;;;;;17.67;10.03;;;2.90;99.90;;;;;;5002925;28;20222;-83
2020/12/29 10:31:43;;;;;;;18.77;10.10;;;2.90;99.90;;;;;;5027532;28;20530;-80
2020/12/29 10:34:12;;;;;;;16.97;9.83;;;2.90;99.90;;;;;;5034011;28;20646;-81
2020/12/29 10:36:38;;;;;;;18.93;11.07;;;2.90;99.90;;;;;;5017473;28;20639;-84
2020/12/29 10:39:04;;;;;;;18.80;11.30;;;3.00;99.90;;;;;;4998365;28;20184;-86
2020/12/29 10:41:30;;;;;;;19.43;10.90;;;3.00;99.90;;;;;;4997594;28;20266;-85
2020/12/29 10:43:56;;;;;;;21.50;10.77;;;3.10;99.90;;;;;;5035848;28;20233;-86
2020/12/29 10:46:22;;;;;;;16.67;10.73;;;3.10;99.90;;;;;;5023130;28;20650;-84
2020/12/29 10:48:49;;;;;;;18.17;10.00;;;3.10;99.90;;;;;;5021689;28;20225;-84
2020/12/29 10:51:21;;;;;;;19.37;10.43;;;3.10;99.90;;;;;;5030273;28;20210;-82
2020/12/29 10:53:47;;;;;;;19.80;11.13;;;3.20;99.90;;;;;;5003214;28;20674;-83
2020/12/29 10:56:12;;;;;;;19.53;10.10;;;3.30;99.90;;;;;;4998754;28;20164;-81
2020/12/29 10:58:39;;;;;;;20.70;11.33;;;3.20;99.90;;;;;;4989073;28;20179;-79
2020/12/29 11:01:05;;;;;;;18.90;10.27;;;3.20;99.90;;;;;;5006930;28;20213;-84
2020/12/29 11:03:30;;;;;;;19.33;10.90;;;3.20;99.90;;;;;;5027152;28;20211;-83
2020/12/29 11:05:56;;;;;;;17.83;10.33;;;3.30;99.90;;;;;;4988251;28;20250;-82
2020/12/29 11:08:24;;;;;;;17.17;10.50;;;3.40;99.90;;;;;;5018182;28;20184;-78
2020/12/29 11:10:50;;;;;;;20.37;10.43;;;3.40;99.90;;;;;;4992749;28;20202;-77
2020/12/29 11:13:15;;;;;;;19.27;11.13;;;3.50;99.90;;;;;;5013118;28;20638;-77
2020/12/29 11:15:41;;;;;;;17.20;10.53;;;3.60;99.90;;;;;;4996725;28;20184;-78
2020/12/29 11:18:06;;;;;;;14.57;9.07;;;3.60;99.90;;;;;;4996479;28;20183;-77
2020/12/29 11:20:32;;;;;;;17.13;9.40;;;3.70;99.90;;;;;;4996476;28;20195;-78
2020/12/29 11:22:58;;;;;;;16.37;8.90;;;3.60;99.90;;;;;;5013062;28;20183;-76
2020/12/29 11:25:23;;;;;;;17.63;10.00;;;3.70;99.90;;;;;;5001041;28;20188;-77
2020/12/29 11:27:49;;;;;;;15.27;10.30;;;3.60;99.90;;;;;;4993688;28;20224;-77
2020/12/29 11:30:14;;;;;;;15.67;8.33;;;3.60;99.90;;;;;;5005051;28;20207;-75
2020/12/29 11:32:40;;;;;;;17.80;10.57;;;3.70;99.90;;;;;;5011875;28;20281;-75
2020/12/29 11:35:05;;;;;;;15.47;9.77;;;3.70;99.90;;;;;;5011731;28;20634;-76
2020/12/29 11:37:31;;;;;;;18.10;11.07;;;3.70;99.90;;;;;;5010379;28;20186;-75
2020/12/29 11:39:56;;;;;;;20.80;12.13;;;3.70;99.90;;;;;;5010445;28;20179;-75
2020/12/29 11:42:22;;;;;;;18.83;12.10;;;3.70;99.90;;;;;;5010344;28;20283;-75
2020/12/29 11:44:47;;;;;;;19.73;11.27;;;3.70;99.90;;;;;;5010457;28;20217;-75
2020/12/29 11:47:13;;;;;;;20.93;13.40;;;3.70;99.90;;;;;;5011722;28;20175;-76
2020/12/29 11:49:38;;;;;;;23.23;13.63;;;3.70;99.90;;;;;;5012047;28;20683;-76
2020/12/29 11:52:04;;;;;;;19.07;13.40;;;3.80;99.90;;;;;;5012082;28;20207;-75
2020/12/29 11:54:29;;;;;;;22.60;14.93;;;3.70;99.90;;;;;;5013400;28;20179;-77
2020/12/29 11:56:55;;;;;;;25.63;14.93;;;3.70;99.90;;;;;;5000291;28;20187;-76
2020/12/29 11:59:20;;;;;;;22.33;15.30;;;3.80;99.90;;;;;;5031807;28;20185;-77
2020/12/29 12:01:46;;;;;;;29.27;15.97;;;3.80;99.90;;;;;;5031511;28;20267;-77
2020/12/29 12:04:11;;;;;;;28.53;16.23;;;3.80;99.90;;;;;;5031660;28;20178;-75
2020/12/29 12:06:37;;;;;;;28.70;18.40;;;3.80;99.90;;;;;;5031582;28;20178;-75
2020/12/29 12:09:03;;;;;;;27.87;17.00;;;3.80;99.90;;;;;;5015193;28;20183;-75
2020/12/29 12:11:29;;;;;;;27.77;18.03;;;3.90;99.90;;;;;;5031405;28;20710;-75
2020/12/29 12:13:56;;;;;;;29.93;19.03;;;3.80;99.90;;;;;;5031143;28;20253;-76
2020/12/29 12:16:21;;;;;;;27.90;16.27;;;3.80;99.90;;;;;;5031051;28;20186;-76
2020/12/29 12:18:47;;;;;;;36.60;21.63;;;3.80;99.90;;;;;;5000018;28;20176;-76
2020/12/29 12:21:12;;;;;;;37.57;21.77;;;3.80;99.90;;;;;;4992027;28;20196;-76
2020/12/29 12:23:38;;;;;;;37.03;22.13;;;3.70;99.90;;;;;;4991994;28;20183;-76
2020/12/29 12:26:03;;;;;;;37.13;23.17;;;3.70;99.90;;;;;;4991792;28;20729;-76
2020/12/29 12:28:29;;;;;;;39.87;22.43;;;3.80;99.90;;;;;;4991949;28;20550;-76
2020/12/29 12:30:55;;;;;;;42.77;24.97;;;3.70;99.90;;;;;;4991843;28;20203;-77
2020/12/29 12:33:20;;;;;;;39.93;22.40;;;3.70;99.90;;;;;;4991956;28;20670;-76
2020/12/29 12:35:46;;;;;;;42.00;24.57;;;3.70;99.90;;;;;;4993180;28;20611;-79
2020/12/29 12:38:11;;;;;;;46.13;25.03;;;3.70;99.90;;;;;;4992724;28;20252;-76
2020/12/29 12:40:37;;;;;;;46.33;26.97;;;3.60;99.90;;;;;;4975492;28;20204;-77
2020/12/29 12:43:03;;;;;;;43.07;26.00;;;3.60;99.90;;;;;;4993014;28;20585;-77
2020/12/29 12:45:28;;;;;;;47.20;25.80;;;3.60;99.90;;;;;;4991942;28;20543;-78
2020/12/29 12:47:54;;;;;;;53.20;30.43;;;3.60;99.90;;;;;;4991498;28;20188;-77